createdAt,value
2019-01-08T18:41:21.278Z,6.30
2019-01-08T18:46:57.471Z,5.70
2019-01-08T18:49:27.428Z,5.90
2019-01-08T18:52:08.574Z,5.90
2019-01-08T18:54:38.424Z,5.90
2019-01-08T18:57:26.604Z,5.80
2019-01-08T19:00:15.143Z,5.80
2019-01-08T19:03:03.230Z,5.80
2019-01-08T19:05:43.707Z,5.70
2019-01-08T19:08:24.603Z,5.80
2019-01-08T19:11:05.859Z,5.80
2019-01-08T19:13:34.836Z,5.90
2019-01-08T19:16:23.217Z,5.90
2019-01-08T19:19:11.519Z,6.00
2019-01-08T19:21:59.768Z,6.00
2019-01-08T19:24:47.932Z,6.00
2019-01-08T19:27:36.376Z,6.10
2019-01-08T19:30:05.939Z,6.10
2019-01-08T19:32:54.108Z,6.00
2019-01-08T19:35:42.224Z,5.90
2019-01-08T19:38:30.408Z,5.80
2019-01-08T19:41:18.556Z,5.70
2019-01-08T19:44:07.057Z,5.70
2019-01-08T19:46:55.216Z,5.80
2019-01-08T19:49:43.709Z,5.80
2019-01-08T19:52:32.056Z,5.70
2019-01-08T19:55:20.237Z,5.70
2019-01-08T19:58:08.338Z,5.70
2019-01-08T20:00:37.381Z,5.70
2019-01-08T20:03:25.469Z,5.70
2019-01-08T20:05:54.422Z,5.70
2019-01-08T20:08:37.282Z,5.70
2019-01-08T20:11:18.522Z,5.70
2019-01-08T20:13:59.822Z,5.80
2019-01-08T20:16:28.898Z,5.80
2019-01-08T20:19:17.134Z,5.80
2019-01-08T20:22:05.318Z,5.80
2019-01-08T20:24:53.506Z,5.80
2019-01-08T20:27:41.713Z,5.90
2019-01-08T20:30:10.960Z,5.80
2019-01-08T20:32:40.214Z,5.80
2019-01-08T20:35:28.468Z,5.80
2019-01-08T20:38:16.851Z,5.80
2019-01-08T20:41:05.081Z,5.80
2019-01-08T20:43:53.258Z,5.70
2019-01-08T20:46:41.469Z,5.60
2019-01-08T20:49:29.977Z,5.60
2019-01-08T20:51:59.023Z,5.60
2019-01-08T20:54:47.235Z,5.50
2019-01-08T20:57:36.695Z,5.60
2019-01-08T21:00:24.887Z,5.60
2019-01-08T21:03:13.289Z,5.60
2019-01-08T21:06:01.471Z,5.60
2019-01-08T21:08:41.859Z,5.50
2019-01-08T21:11:22.232Z,5.50
2019-01-08T21:14:03.460Z,5.50
2019-01-08T21:16:46.821Z,5.50
2019-01-08T21:19:15.740Z,5.50
2019-01-08T21:22:03.964Z,5.50
2019-01-08T21:24:52.088Z,5.40
2019-01-08T21:27:40.188Z,5.40
2019-01-08T21:30:28.436Z,5.30
2019-01-08T21:33:16.597Z,5.20
2019-01-08T21:35:45.524Z,5.00
2019-01-08T21:38:33.747Z,5.00
2019-01-08T21:41:21.889Z,4.90
2019-01-08T21:44:09.964Z,5.00
2019-01-08T21:46:58.216Z,4.90
2019-01-08T21:49:46.408Z,4.90
2019-01-08T21:54:50.437Z,4.90
2019-01-08T21:57:52.700Z,4.90
2019-01-08T22:00:28.596Z,4.90
2019-01-08T22:03:16.808Z,4.80
2019-01-08T22:06:05.001Z,4.80
2019-01-08T22:11:21.725Z,4.80
2019-01-08T22:14:09.933Z,4.80
2019-01-08T22:16:39.079Z,4.80
2019-01-08T22:19:27.237Z,4.90
2019-01-08T22:22:15.349Z,4.90
2019-01-08T22:24:44.365Z,4.90
2019-01-08T22:27:32.562Z,5.00
2019-01-08T22:30:20.769Z,5.00
2019-01-08T22:36:16.404Z,5.00
2019-01-08T22:39:05.164Z,5.00
2019-01-08T22:41:53.344Z,5.00
2019-01-08T22:44:41.752Z,5.00
2019-01-08T22:47:10.770Z,5.00
2019-01-08T22:49:58.876Z,5.00
2019-01-08T22:52:47.044Z,5.00
2019-01-08T22:55:35.211Z,5.00
2019-01-08T22:58:05.292Z,5.10
2019-01-08T23:01:12.496Z,5.20
2019-01-08T23:04:01.636Z,5.10
2019-01-08T23:09:37.990Z,4.70
2019-01-08T23:12:18.916Z,4.60
2019-01-08T23:14:59.924Z,4.60
2019-01-08T23:17:41.292Z,4.60
2019-01-08T23:20:21.931Z,4.60
2019-01-08T23:23:02.378Z,4.60
2019-01-08T23:25:43.452Z,4.50
2019-01-08T23:28:23.976Z,4.40
2019-01-08T23:31:05.328Z,4.40
2019-01-08T23:33:34.320Z,4.40
2019-01-08T23:36:03.400Z,4.40
2019-01-08T23:38:51.584Z,4.50
2019-01-08T23:41:40.008Z,4.60
2019-01-08T23:44:28.212Z,4.70
2019-01-08T23:47:16.540Z,4.80
2019-01-08T23:50:04.900Z,4.80
2019-01-08T23:53:16.552Z,4.80
2019-01-08T23:56:05.165Z,4.80
2019-01-08T23:58:53.324Z,4.90
